Time;durP1;ratioP1;P1;durP2;ratioP2;P2;SDS_P1;SDS_P2;PMS_P1;PMS_P2;Temp;Humidity;BMP_temperature;BMP_pressure;BME280_temperature;BME280_humidity;BME280_pressure;Samples;Min_cycle;Max_cycle;Signal;HPM_P1;HPM_P2
2023/10/04 00:02:19;;;;;;;488.23;100.97;;;;;;;;;;5034405;28;20041;-55
2023/10/04 00:04:44;;;;;;;383.88;97.32;;;;;;;;;;5035403;28;20017;-55
2023/10/04 00:07:09;;;;;;;550.15;105.15;;;;;;;;;;5033448;28;20047;-56
2023/10/04 00:09:35;;;;;;;369.40;97.03;;;;;;;;;;5036633;28;20458;-55
2023/10/04 00:12:01;;;;;;;368.70;97.43;;;;;;;;;;5036214;28;20864;-55
2023/10/04 00:14:26;;;;;;;418.83;98.80;;;;;;;;;;5035116;28;20256;-55
2023/10/04 00:16:53;;;;;;;426.08;98.88;;;;;;;;;;5035474;28;20047;-55
2023/10/04 00:19:18;;;;;;;547.38;105.65;;;;;;;;;;5035262;28;20066;-54
2023/10/04 00:21:43;;;;;;;437.37;99.97;;;;;;;;;;5034818;28;20056;-55
2023/10/04 00:24:09;;;;;;;507.10;104.77;;;;;;;;;;5034385;28;20850;-54
2023/10/04 00:26:35;;;;;;;376.75;98.47;;;;;;;;;;5034875;28;20353;-56
2023/10/04 00:29:00;;;;;;;422.10;100.22;;;;;;;;;;5035491;28;20028;-56
2023/10/04 00:31:25;;;;;;;388.65;98.53;;;;;;;;;;5034178;28;20107;-57
2023/10/04 00:33:51;;;;;;;356.57;98.63;;;;;;;;;;5036368;28;20043;-56
2023/10/04 00:36:20;;;;;;;503.13;105.10;;;;;;;;;;5033148;28;20663;-57
2023/10/04 00:38:46;;;;;;;383.90;100.65;;;;;;;;;;5036522;28;20016;-54
2023/10/04 00:41:11;;;;;;;464.30;104.07;;;;;;;;;;5035141;28;20091;-56
2023/10/04 00:43:49;;;;;;;357.35;98.28;;;;;;;;;;5035737;28;20239;-55
2023/10/04 00:46:17;;;;;;;478.88;103.22;;;;;;;;;;5033505;28;20033;-55
2023/10/04 00:48:44;;;;;;;388.17;99.53;;;;;;;;;;5035930;28;20025;-55
2023/10/04 00:51:09;;;;;;;445.42;102.32;;;;;;;;;;5032466;28;20049;-57
2023/10/04 00:53:34;;;;;;;322.27;97.55;;;;;;;;;;5036461;28;20640;-56
2023/10/04 00:56:00;;;;;;;407.13;100.32;;;;;;;;;;5035602;28;20091;-55
2023/10/04 00:58:25;;;;;;;425.38;101.05;;;;;;;;;;5033185;28;20017;-56
2023/10/04 01:00:50;;;;;;;400.85;101.70;;;;;;;;;;5034725;28;20040;-57
2023/10/04 01:03:19;;;;;;;502.33;106.15;;;;;;;;;;5032941;28;20033;-56
2023/10/04 01:05:51;;;;;;;382.08;92.88;;;;;;;;;;5033893;28;20055;-56
2023/10/04 01:08:17;;;;;;;454.77;97.45;;;;;;;;;;5032287;28;20449;-56
2023/10/04 01:10:45;;;;;;;386.20;96.03;;;;;;;;;;5034754;28;20991;-55
2023/10/04 01:13:11;;;;;;;392.60;97.07;;;;;;;;;;5034417;28;20445;-55
2023/10/04 01:15:37;;;;;;;317.10;95.20;;;;;;;;;;5036141;28;20029;-55
2023/10/04 01:18:04;;;;;;;383.13;96.70;;;;;;;;;;5034408;28;20021;-54
2023/10/04 01:20:33;;;;;;;401.52;98.20;;;;;;;;;;5032905;28;20049;-56
2023/10/04 01:23:00;;;;;;;409.85;97.85;;;;;;;;;;5034062;28;20214;-57
2023/10/04 01:25:26;;;;;;;532.03;94.10;;;;;;;;;;5032982;28;20032;-55
2023/10/04 01:27:52;;;;;;;313.38;87.93;;;;;;;;;;5034459;28;20241;-54
2023/10/04 01:30:17;;;;;;;520.20;99.70;;;;;;;;;;5032210;28;20489;-54
2023/10/04 01:32:43;;;;;;;386.00;94.67;;;;;;;;;;5035690;28;20502;-55
2023/10/04 01:35:08;;;;;;;357.52;95.15;;;;;;;;;;5033538;28;20548;-54
2023/10/04 01:37:37;;;;;;;358.48;95.03;;;;;;;;;;5034124;28;20565;-56
2023/10/04 01:40:05;;;;;;;379.58;95.93;;;;;;;;;;5035641;28;20337;-56
2023/10/04 01:42:30;;;;;;;406.55;96.63;;;;;;;;;;5033246;28;20439;-57
2023/10/04 01:44:55;;;;;;;368.70;96.10;;;;;;;;;;5034500;28;20035;-54
2023/10/04 01:47:21;;;;;;;517.95;104.22;;;;;;;;;;5032328;28;20820;-54
2023/10/04 01:49:46;;;;;;;358.65;91.43;;;;;;;;;;5034340;28;20087;-55
2023/10/04 01:52:12;;;;;;;372.20;86.50;;;;;;;;;;5034877;28;20391;-55
2023/10/04 01:54:37;;;;;;;398.48;92.53;;;;;;;;;;5034078;28;20036;-56
2023/10/04 01:57:05;;;;;;;340.17;92.93;;;;;;;;;;5034355;28;20065;-54
2023/10/04 01:59:31;;;;;;;359.50;94.18;;;;;;;;;;5033530;28;20299;-55
2023/10/04 02:01:57;;;;;;;412.67;97.88;;;;;;;;;;5033012;28;20045;-54
2023/10/04 02:04:23;;;;;;;454.08;100.57;;;;;;;;;;5033116;28;20102;-55
2023/10/04 02:06:48;;;;;;;370.17;95.53;;;;;;;;;;5033510;28;20072;-55
2023/10/04 02:09:16;;;;;;;407.23;98.43;;;;;;;;;;5032785;28;20423;-55
2023/10/04 02:11:41;;;;;;;345.27;95.97;;;;;;;;;;5034846;28;20025;-56
2023/10/04 02:14:07;;;;;;;371.25;97.47;;;;;;;;;;5033990;28;20078;-56
2023/10/04 02:16:34;;;;;;;413.20;99.30;;;;;;;;;;5032667;28;20054;-54
2023/10/04 02:19:00;;;;;;;351.52;97.38;;;;;;;;;;5034858;28;20082;-55
2023/10/04 02:21:26;;;;;;;492.90;104.55;;;;;;;;;;5031833;28;20033;-56
2023/10/04 02:23:53;;;;;;;390.17;98.82;;;;;;;;;;5034415;28;20109;-54
2023/10/04 02:26:22;;;;;;;510.15;105.30;;;;;;;;;;5016060;28;20040;-56
2023/10/04 02:28:47;;;;;;;376.30;98.05;;;;;;;;;;5033159;28;20286;-55
2023/10/04 02:31:12;;;;;;;428.65;101.25;;;;;;;;;;5032963;28;20368;-54
2023/10/04 02:33:38;;;;;;;345.80;98.53;;;;;;;;;;5034655;28;20024;-56
2023/10/04 02:36:07;;;;;;;392.90;99.80;;;;;;;;;;5033644;28;20280;-56
2023/10/04 02:38:34;;;;;;;443.35;100.55;;;;;;;;;;5032492;28;20119;-55
2023/10/04 02:40:59;;;;;;;393.63;98.85;;;;;;;;;;5032230;28;20033;-55
2023/10/04 02:43:25;;;;;;;417.48;101.60;;;;;;;;;;5032319;28;20056;-56
2023/10/04 02:45:52;;;;;;;403.05;102.28;;;;;;;;;;5034405;28;20136;-54
2023/10/04 02:48:18;;;;;;;548.72;108.05;;;;;;;;;;5015452;28;20021;-55
2023/10/04 02:50:44;;;;;;;386.13;100.35;;;;;;;;;;5034730;28;20060;-56
2023/10/04 02:53:13;;;;;;;452.30;102.70;;;;;;;;;;5034750;28;20025;-56
2023/10/04 02:55:38;;;;;;;372.73;99.88;;;;;;;;;;5033442;28;20087;-55
2023/10/04 02:58:07;;;;;;;342.73;98.22;;;;;;;;;;5034403;28;20750;-56
2023/10/04 03:00:33;;;;;;;400.42;101.00;;;;;;;;;;5032080;28;20130;-55
2023/10/04 03:02:58;;;;;;;408.65;100.40;;;;;;;;;;5034381;28;20048;-55
2023/10/04 03:05:28;;;;;;;461.20;104.03;;;;;;;;;;5035678;28;20025;-54
2023/10/04 03:07:54;;;;;;;351.13;100.70;;;;;;;;;;5037376;28;20028;-55
2023/10/04 03:10:25;;;;;;;434.13;103.15;;;;;;;;;;5035208;28;20029;-56
2023/10/04 03:12:54;;;;;;;381.85;100.18;;;;;;;;;;5037938;28;20021;-56
2023/10/04 03:15:23;;;;;;;425.83;102.88;;;;;;;;;;5036331;28;20025;-56
2023/10/04 03:17:52;;;;;;;360.80;100.20;;;;;;;;;;5037768;28;21385;-57
2023/10/04 03:20:20;;;;;;;524.92;107.43;;;;;;;;;;5034577;28;20100;-55
2023/10/04 03:22:49;;;;;;;334.55;81.28;;;;;;;;;;5037405;28;20040;-54
2023/10/04 03:25:17;;;;;;;301.20;81.63;;;;;;;;;;5035589;28;20334;-54
2023/10/04 03:27:44;;;;;;;357.75;85.35;;;;;;;;;;5036103;28;20151;-56
2023/10/04 03:30:16;;;;;;;322.77;85.63;;;;;;;;;;5036254;28;20110;-53
2023/10/04 03:32:49;;;;;;;381.10;89.03;;;;;;;;;;5038013;28;20013;-55
2023/10/04 03:35:14;;;;;;;352.25;90.22;;;;;;;;;;5036596;28;20155;-54
2023/10/04 03:37:47;;;;;;;335.77;89.45;;;;;;;;;;5036258;28;20494;-54
2023/10/04 03:40:14;;;;;;;362.42;91.07;;;;;;;;;;5037109;28;20458;-55
2023/10/04 03:42:41;;;;;;;368.77;91.07;;;;;;;;;;5037172;28;20038;-54
2023/10/04 03:45:07;;;;;;;377.77;90.78;;;;;;;;;;5036906;28;20033;-55
2023/10/04 03:47:33;;;;;;;486.83;97.85;;;;;;;;;;5034524;28;20047;-54
2023/10/04 03:49:58;;;;;;;325.25;90.43;;;;;;;;;;5038176;28;20414;-54
2023/10/04 03:52:25;;;;;;;384.87;92.93;;;;;;;;;;5037387;28;20246;-53
2023/10/04 03:54:50;;;;;;;375.38;92.60;;;;;;;;;;5036363;28;20605;-54
2023/10/04 03:57:16;;;;;;;370.50;92.95;;;;;;;;;;5037274;28;20502;-54
2023/10/04 03:59:44;;;;;;;312.95;91.18;;;;;;;;;;5039142;28;20029;-54
2023/10/04 04:02:11;;;;;;;357.25;92.35;;;;;;;;;;5038010;28;20549;-54
2023/10/04 04:04:36;;;;;;;316.23;91.65;;;;;;;;;;5037624;28;20336;-55
2023/10/04 04:07:01;;;;;;;361.25;92.93;;;;;;;;;;5037839;28;20278;-54
2023/10/04 04:09:27;;;;;;;412.23;95.85;;;;;;;;;;5035326;28;20024;-55
2023/10/04 04:11:53;;;;;;;383.27;94.10;;;;;;;;;;5020155;28;20033;-54
2023/10/04 04:14:19;;;;;;;360.80;93.63;;;;;;;;;;5037022;28;20029;-55
2023/10/04 04:16:46;;;;;;;389.58;94.75;;;;;;;;;;5037159;28;20290;-56
2023/10/04 04:19:12;;;;;;;351.63;93.97;;;;;;;;;;5037907;28;20033;-55
2023/10/04 04:21:37;;;;;;;399.60;95.57;;;;;;;;;;5036711;28;20036;-54
2023/10/04 04:24:04;;;;;;;400.88;96.65;;;;;;;;;;5037169;28;20025;-54
2023/10/04 04:26:30;;;;;;;410.67;97.03;;;;;;;;;;5036331;28;20072;-54
2023/10/04 04:28:55;;;;;;;367.37;95.67;;;;;;;;;;5037647;28;20045;-55
2023/10/04 04:31:20;;;;;;;427.42;99.20;;;;;;;;;;5035789;28;20283;-56
2023/10/04 04:33:46;;;;;;;344.70;95.18;;;;;;;;;;5036500;28;20403;-56
2023/10/04 04:36:25;;;;;;;337.88;94.90;;;;;;;;;;5037286;28;20516;-55
2023/10/04 04:38:51;;;;;;;367.50;95.53;;;;;;;;;;5038151;28;20052;-56
2023/10/04 04:41:21;;;;;;;354.17;96.15;;;;;;;;;;5037073;28;20629;-56
2023/10/04 04:43:49;;;;;;;390.92;97.47;;;;;;;;;;5037153;28;20037;-56
2023/10/04 04:46:16;;;;;;;347.98;95.70;;;;;;;;;;5037256;28;20116;-55
2023/10/04 04:48:42;;;;;;;331.30;95.70;;;;;;;;;;5019731;28;20021;-55
2023/10/04 04:53:36;;;;;;;346.48;98.15;;;;;;;;;;5035922;28;20032;-56
2023/10/04 04:56:01;;;;;;;345.00;98.43;;;;;;;;;;5036500;28;20041;-55
2023/10/04 04:58:28;;;;;;;404.67;100.75;;;;;;;;;;5035099;28;20117;-56
2023/10/04 05:01:00;;;;;;;346.10;97.95;;;;;;;;;;5036901;28;20508;-55
2023/10/04 05:03:26;;;;;;;435.85;102.47;;;;;;;;;;5036335;28;20115;-56
2023/10/04 05:05:51;;;;;;;461.75;102.32;;;;;;;;;;5033449;28;20120;-55
2023/10/04 05:08:17;;;;;;;374.08;100.00;;;;;;;;;;5036145;28;20028;-55
2023/10/04 05:10:44;;;;;;;415.20;102.13;;;;;;;;;;5033950;28;20055;-54
2023/10/04 05:13:13;;;;;;;404.75;99.57;;;;;;;;;;5035173;28;20271;-54
2023/10/04 05:15:42;;;;;;;365.45;99.95;;;;;;;;;;5035118;28;20029;-56
2023/10/04 05:18:11;;;;;;;345.13;100.68;;;;;;;;;;5036033;28;20082;-55
2023/10/04 05:20:36;;;;;;;419.33;103.80;;;;;;;;;;5034816;28;20065;-56
2023/10/04 05:23:03;;;;;;;392.63;102.93;;;;;;;;;;5035619;28;20056;-57
2023/10/04 05:25:28;;;;;;;407.08;103.65;;;;;;;;;;5016138;28;20330;-56
2023/10/04 05:28:00;;;;;;;363.95;100.35;;;;;;;;;;5035865;28;20400;-55
2023/10/04 05:30:26;;;;;;;351.70;100.97;;;;;;;;;;5035496;28;20565;-56
2023/10/04 05:32:51;;;;;;;364.15;100.05;;;;;;;;;;5035652;28;20461;-54
2023/10/04 05:35:17;;;;;;;352.73;100.57;;;;;;;;;;5032838;28;20744;-56
2023/10/04 05:37:44;;;;;;;381.95;100.68;;;;;;;;;;5033537;28;20478;-56
2023/10/04 05:40:16;;;;;;;388.38;99.80;;;;;;;;;;5036328;28;20045;-55
2023/10/04 05:42:45;;;;;;;336.52;97.45;;;;;;;;;;5035290;28;20532;-55
2023/10/04 05:45:11;;;;;;;332.45;97.38;;;;;;;;;;5034426;28;20044;-56
2023/10/04 05:47:37;;;;;;;420.50;102.85;;;;;;;;;;5035286;28;20139;-55
2023/10/04 05:50:05;;;;;;;366.38;100.55;;;;;;;;;;5018168;28;20104;-56
2023/10/04 05:52:32;;;;;;;444.30;103.55;;;;;;;;;;5017418;28;20337;-56
2023/10/04 05:54:57;;;;;;;362.75;99.78;;;;;;;;;;5035348;28;20096;-56
2023/10/04 05:57:23;;;;;;;415.00;102.05;;;;;;;;;;5034542;28;20573;-56
2023/10/04 05:59:48;;;;;;;403.15;101.53;;;;;;;;;;5034350;28;20033;-58
2023/10/04 06:02:14;;;;;;;383.83;99.82;;;;;;;;;;5034986;28;20041;-55
2023/10/04 06:04:40;;;;;;;371.60;99.55;;;;;;;;;;5034306;28;20025;-56
2023/10/04 06:07:07;;;;;;;381.55;99.75;;;;;;;;;;5035453;28;20076;-55
2023/10/04 06:09:32;;;;;;;433.92;102.20;;;;;;;;;;5035524;28;20612;-55
2023/10/04 06:11:58;;;;;;;368.30;99.20;;;;;;;;;;5034027;28;20053;-55
2023/10/04 06:14:26;;;;;;;466.23;101.68;;;;;;;;;;5034332;28;20390;-56
2023/10/04 06:16:52;;;;;;;373.58;98.28;;;;;;;;;;5034123;28;20065;-56
2023/10/04 06:19:19;;;;;;;368.02;98.38;;;;;;;;;;5036702;28;20025;-57
2023/10/04 06:21:49;;;;;;;421.70;99.05;;;;;;;;;;5033678;28;20314;-56
2023/10/04 06:24:14;;;;;;;374.13;96.32;;;;;;;;;;5035802;28;20724;-54
2023/10/04 06:26:41;;;;;;;373.73;95.28;;;;;;;;;;5035050;28;20029;-58
2023/10/04 06:29:07;;;;;;;320.42;92.38;;;;;;;;;;5035830;28;20720;-56
2023/10/04 06:31:32;;;;;;;407.55;92.45;;;;;;;;;;5033715;28;20759;-57
2023/10/04 06:33:59;;;;;;;391.73;88.57;;;;;;;;;;5035872;28;20025;-55
2023/10/04 06:36:25;;;;;;;480.40;90.38;;;;;;;;;;5032120;28;23087;-56
2023/10/04 06:38:51;;;;;;;427.40;86.68;;;;;;;;;;5037416;28;20024;-55
2023/10/04 06:41:16;;;;;;;402.67;83.90;;;;;;;;;;5035847;28;20036;-57
2023/10/04 06:43:43;;;;;;;430.13;81.80;;;;;;;;;;5036359;28;20514;-57
2023/10/04 06:46:08;;;;;;;410.65;79.03;;;;;;;;;;5037814;28;20064;-57
2023/10/04 06:48:33;;;;;;;472.30;80.27;;;;;;;;;;5036786;28;20647;-57
2023/10/04 06:50:59;;;;;;;380.73;75.13;;;;;;;;;;5035620;28;20295;-57
2023/10/04 06:53:25;;;;;;;357.30;74.07;;;;;;;;;;5037981;28;20419;-57
2023/10/04 06:55:50;;;;;;;348.35;72.00;;;;;;;;;;5037120;28;20143;-56
2023/10/04 06:58:15;;;;;;;356.20;72.63;;;;;;;;;;5039372;28;20024;-56
2023/10/04 07:00:41;;;;;;;390.83;70.85;;;;;;;;;;5038453;28;20665;-57
2023/10/04 07:03:06;;;;;;;336.00;67.20;;;;;;;;;;5035053;28;20025;-56
2023/10/04 07:05:33;;;;;;;343.77;65.45;;;;;;;;;;5039259;28;20114;-59
2023/10/04 07:07:58;;;;;;;298.95;63.85;;;;;;;;;;5038688;28;20124;-59
2023/10/04 07:10:27;;;;;;;337.58;63.83;;;;;;;;;;5040527;28;20477;-55
2023/10/04 07:12:54;;;;;;;299.83;62.20;;;;;;;;;;5041288;28;20013;-57
2023/10/04 07:15:19;;;;;;;276.98;61.03;;;;;;;;;;5039940;28;20029;-56
2023/10/04 07:17:45;;;;;;;254.98;60.08;;;;;;;;;;5039858;28;20170;-57
2023/10/04 07:20:15;;;;;;;287.52;62.45;;;;;;;;;;5040758;28;20028;-56
2023/10/04 07:22:45;;;;;;;361.98;67.30;;;;;;;;;;5041163;28;20472;-56
2023/10/04 07:25:12;;;;;;;331.73;67.75;;;;;;;;;;5039484;28;20553;-58
2023/10/04 07:27:38;;;;;;;382.08;71.40;;;;;;;;;;5041035;28;20071;-56
2023/10/04 07:30:04;;;;;;;317.90;71.53;;;;;;;;;;5042149;28;20021;-57
2023/10/04 07:32:30;;;;;;;418.83;76.47;;;;;;;;;;5023489;28;20040;-58
2023/10/04 07:34:55;;;;;;;324.23;73.35;;;;;;;;;;5040349;28;20017;-57
2023/10/04 07:37:20;;;;;;;366.43;76.10;;;;;;;;;;5039746;28;20033;-56
2023/10/04 07:39:46;;;;;;;362.83;76.40;;;;;;;;;;5040498;28;20028;-58
2023/10/04 07:42:11;;;;;;;355.35;77.80;;;;;;;;;;5040181;28;20118;-57
2023/10/04 07:44:37;;;;;;;306.83;77.20;;;;;;;;;;5039965;28;20152;-57
2023/10/04 07:47:02;;;;;;;423.52;82.22;;;;;;;;;;5039533;28;20380;-56
2023/10/04 07:49:31;;;;;;;408.20;85.18;;;;;;;;;;5038947;28;20534;-56
2023/10/04 07:51:57;;;;;;;340.70;80.97;;;;;;;;;;5040614;28;20113;-57
2023/10/04 07:54:22;;;;;;;414.85;86.57;;;;;;;;;;5039600;28;20171;-55
2023/10/04 07:56:49;;;;;;;370.65;84.85;;;;;;;;;;5038833;28;20037;-57
2023/10/04 07:59:14;;;;;;;311.23;83.47;;;;;;;;;;5041042;28;20045;-55
2023/10/04 08:01:40;;;;;;;396.33;86.70;;;;;;;;;;5039380;28;20140;-56
2023/10/04 08:04:07;;;;;;;344.00;85.30;;;;;;;;;;5040514;28;20020;-56
2023/10/04 08:06:32;;;;;;;394.48;86.20;;;;;;;;;;5036248;28;20773;-55
2023/10/04 08:08:57;;;;;;;352.50;84.47;;;;;;;;;;5040135;28;20013;-56
2023/10/04 08:11:23;;;;;;;389.60;85.90;;;;;;;;;;5040275;28;20059;-57
2023/10/04 08:13:48;;;;;;;358.57;85.93;;;;;;;;;;5039615;28;20498;-55
2023/10/04 08:16:14;;;;;;;364.75;85.70;;;;;;;;;;5040448;28;20264;-56
2023/10/04 08:18:39;;;;;;;448.30;87.55;;;;;;;;;;5039726;28;20066;-56
2023/10/04 08:21:07;;;;;;;322.88;83.88;;;;;;;;;;5041279;28;20214;-56
2023/10/04 08:23:33;;;;;;;416.90;86.82;;;;;;;;;;5039477;28;20032;-57
2023/10/04 08:25:58;;;;;;;362.27;84.43;;;;;;;;;;5039353;28;20040;-55
2023/10/04 08:28:24;;;;;;;379.02;82.78;;;;;;;;;;5040787;28;20016;-56
2023/10/04 08:30:51;;;;;;;341.27;79.25;;;;;;;;;;5038560;28;20453;-57
2023/10/04 08:33:19;;;;;;;356.58;81.65;;;;;;;;;;5039520;28;20145;-57
2023/10/04 08:35:45;;;;;;;385.20;80.82;;;;;;;;;;5040184;28;20025;-55
2023/10/04 08:38:10;;;;;;;302.27;76.13;;;;;;;;;;5039573;28;20033;-58
2023/10/04 08:40:38;;;;;;;326.50;77.80;;;;;;;;;;5039858;28;20045;-57
2023/10/04 08:43:04;;;;;;;299.00;73.47;;;;;;;;;;5041081;28;20279;-56
2023/10/04 08:45:29;;;;;;;354.80;78.78;;;;;;;;;;5039005;28;20085;-56
2023/10/04 08:47:56;;;;;;;297.25;75.00;;;;;;;;;;5039258;28;20029;-57
2023/10/04 08:50:31;;;;;;;299.73;75.15;;;;;;;;;;5039358;28;20032;-55
2023/10/04 08:53:10;;;;;;;451.42;77.13;;;;;;;;;;5029988;28;20111;-58
2023/10/04 08:55:41;;;;;;;355.05;78.15;;;;;;;;;;5035379;28;20033;-55
2023/10/04 08:58:09;;;;;;;373.83;75.85;;;;;;;;;;5036253;28;20108;-55
2023/10/04 09:00:34;;;;;;;385.95;76.30;;;;;;;;;;5036374;28;20065;-57
2023/10/04 09:03:01;;;;;;;336.20;71.70;;;;;;;;;;5036271;28;20466;-57
2023/10/04 09:05:28;;;;;;;378.45;73.35;;;;;;;;;;5037012;28;20044;-57
2023/10/04 09:07:55;;;;;;;286.55;68.80;;;;;;;;;;5036752;28;20394;-57
2023/10/04 09:10:20;;;;;;;292.50;68.53;;;;;;;;;;5036370;28;20127;-57
2023/10/04 09:12:47;;;;;;;351.80;70.93;;;;;;;;;;5036454;28;20040;-56
2023/10/04 09:15:13;;;;;;;238.50;65.10;;;;;;;;;;5035861;28;20025;-57
2023/10/04 09:17:55;;;;;;;306.63;67.90;;;;;;;;;;5036224;28;20021;-58
2023/10/04 09:20:22;;;;;;;352.75;69.38;;;;;;;;;;5018409;28;20025;-59
2023/10/04 09:22:48;;;;;;;280.35;67.10;;;;;;;;;;5034696;28;21466;-57
2023/10/04 09:25:15;;;;;;;308.65;68.20;;;;;;;;;;5038244;28;20203;-57
2023/10/04 09:27:52;;;;;;;351.17;70.10;;;;;;;;;;5019383;28;20020;-56
2023/10/04 09:30:27;;;;;;;289.15;66.35;;;;;;;;;;5037884;28;20017;-58
2023/10/04 09:32:53;;;;;;;300.20;66.07;;;;;;;;;;5036644;28;20037;-57
2023/10/04 09:35:19;;;;;;;215.27;61.27;;;;;;;;;;5038591;28;20048;-56
2023/10/04 09:38:04;;;;;;;407.50;83.88;;;;;;;;;;5037480;28;20823;-58
2023/10/04 09:40:29;;;;;;;237.73;59.58;;;;;;;;;;5037288;28;20048;-56
2023/10/04 09:42:56;;;;;;;301.00;60.17;;;;;;;;;;5038183;28;20319;-54
2023/10/04 09:45:24;;;;;;;298.50;59.33;;;;;;;;;;5035391;28;21017;-58
2023/10/04 09:47:53;;;;;;;236.38;50.75;;;;;;;;;;5037351;28;20082;-56
2023/10/04 09:50:24;;;;;;;257.30;51.28;;;;;;;;;;5037288;28;20094;-56
2023/10/04 09:52:50;;;;;;;228.10;50.65;;;;;;;;;;5037592;28;20033;-55
2023/10/04 09:55:16;;;;;;;298.25;52.70;;;;;;;;;;5035995;28;20487;-58
2023/10/04 09:57:44;;;;;;;271.63;50.63;;;;;;;;;;5036570;28;20317;-56
2023/10/04 10:00:22;;;;;;;237.77;48.83;;;;;;;;;;5037577;28;20028;-56
2023/10/04 10:02:52;;;;;;;332.42;111.57;;;;;;;;;;5037901;28;20327;-56
2023/10/04 10:05:21;;;;;;;231.13;50.72;;;;;;;;;;5037873;28;20096;-56
2023/10/04 10:07:48;;;;;;;407.48;180.88;;;;;;;;;;5036502;28;20045;-55
2023/10/04 10:10:16;;;;;;;253.55;52.92;;;;;;;;;;5037560;28;20039;-56
2023/10/04 10:12:43;;;;;;;354.88;58.30;;;;;;;;;;5038159;28;20021;-57
2023/10/04 10:15:11;;;;;;;267.13;56.17;;;;;;;;;;5040729;28;20032;-55
2023/10/04 10:17:38;;;;;;;365.38;64.55;;;;;;;;;;5040613;28;20503;-56
2023/10/04 10:20:09;;;;;;;283.42;58.70;;;;;;;;;;5042036;28;20021;-54
2023/10/04 10:22:35;;;;;;;273.85;60.50;;;;;;;;;;5038951;28;20049;-55
2023/10/04 10:25:02;;;;;;;307.63;62.38;;;;;;;;;;5041246;28;20025;-57
2023/10/04 10:27:28;;;;;;;321.33;64.55;;;;;;;;;;5040967;28;20510;-56
2023/10/04 10:29:57;;;;;;;272.40;64.45;;;;;;;;;;5041864;28;20502;-55
2023/10/04 10:32:23;;;;;;;319.42;66.45;;;;;;;;;;5040890;28;20029;-56
2023/10/04 10:34:50;;;;;;;353.40;69.15;;;;;;;;;;5041607;28;20074;-56
2023/10/04 10:37:24;;;;;;;280.45;66.70;;;;;;;;;;5041327;28;20030;-55
2023/10/04 10:39:51;;;;;;;384.30;72.60;;;;;;;;;;5039597;28;20320;-57
2023/10/04 10:42:16;;;;;;;294.15;69.10;;;;;;;;;;5041324;28;20037;-57
2023/10/04 10:44:42;;;;;;;375.77;72.97;;;;;;;;;;5040645;28;20029;-58
2023/10/04 10:47:08;;;;;;;252.90;68.50;;;;;;;;;;5040203;28;20425;-56
2023/10/04 10:49:36;;;;;;;277.92;68.80;;;;;;;;;;5041415;28;20029;-55
2023/10/04 10:52:02;;;;;;;296.13;68.93;;;;;;;;;;5039876;28;20037;-58
2023/10/04 10:54:27;;;;;;;298.80;71.63;;;;;;;;;;5039837;28;20025;-55
2023/10/04 10:56:52;;;;;;;362.85;70.55;;;;;;;;;;5039136;28;20041;-54
2023/10/04 10:59:17;;;;;;;273.37;66.00;;;;;;;;;;5040318;28;20024;-54
2023/10/04 11:01:42;;;;;;;324.10;67.40;;;;;;;;;;5040741;28;20025;-58
2023/10/04 11:04:08;;;;;;;333.70;67.53;;;;;;;;;;5040458;28;20025;-57
2023/10/04 11:06:35;;;;;;;337.83;81.70;;;;;;;;;;5038938;28;20094;-57
2023/10/04 11:09:00;;;;;;;295.77;64.25;;;;;;;;;;5041382;28;20016;-55
2023/10/04 11:11:26;;;;;;;273.55;62.97;;;;;;;;;;5039760;28;20586;-56
2023/10/04 11:13:51;;;;;;;391.58;74.55;;;;;;;;;;5039965;28;20021;-58
2023/10/04 11:16:19;;;;;;;284.02;65.43;;;;;;;;;;5040628;28;20332;-55
2023/10/04 11:18:45;;;;;;;315.15;66.03;;;;;;;;;;5039742;28;20013;-55
2023/10/04 11:21:11;;;;;;;323.23;68.72;;;;;;;;;;5039630;28;20156;-56
2023/10/04 11:23:37;;;;;;;354.58;99.20;;;;;;;;;;5038477;28;20155;-56
2023/10/04 11:26:04;;;;;;;268.83;71.55;;;;;;;;;;5021485;28;20358;-56
2023/10/04 11:28:30;;;;;;;314.83;67.53;;;;;;;;;;5038642;28;20115;-54
2023/10/04 11:30:55;;;;;;;307.98;68.22;;;;;;;;;;5036633;28;20037;-58
2023/10/04 11:33:21;;;;;;;282.33;67.03;;;;;;;;;;5039950;28;20025;-55
2023/10/04 11:35:47;;;;;;;425.35;72.68;;;;;;;;;;5038033;28;20509;-56
2023/10/04 11:38:16;;;;;;;282.17;67.75;;;;;;;;;;5039409;28;20025;-56
2023/10/04 11:40:50;;;;;;;434.92;90.10;;;;;;;;;;5037657;28;20032;-54
2023/10/04 11:43:16;;;;;;;338.25;77.97;;;;;;;;;;5040173;28;20311;-57
2023/10/04 11:45:41;;;;;;;372.73;72.13;;;;;;;;;;5038420;28;20433;-56
2023/10/04 11:48:08;;;;;;;300.30;68.75;;;;;;;;;;5038780;28;20029;-60
2023/10/04 11:50:42;;;;;;;306.65;69.15;;;;;;;;;;5039013;28;20044;-56
2023/10/04 11:53:07;;;;;;;303.63;69.10;;;;;;;;;;5039847;28;20021;-57
2023/10/04 11:55:37;;;;;;;296.67;69.22;;;;;;;;;;5037834;28;20396;-56
2023/10/04 11:58:04;;;;;;;282.35;69.45;;;;;;;;;;5039027;28;20201;-54
2023/10/04 12:00:29;;;;;;;309.67;72.50;;;;;;;;;;5037883;28;20032;-56
2023/10/04 12:02:55;;;;;;;376.50;71.78;;;;;;;;;;5039509;28;20031;-55
2023/10/04 12:05:20;;;;;;;271.38;70.43;;;;;;;;;;5040035;28;20539;-56
2023/10/04 12:07:47;;;;;;;394.00;74.47;;;;;;;;;;5038524;28;20033;-56
2023/10/04 12:10:13;;;;;;;374.25;74.03;;;;;;;;;;5038175;28;20306;-57
2023/10/04 12:12:38;;;;;;;309.55;71.78;;;;;;;;;;5039110;28;20526;-57
2023/10/04 12:15:07;;;;;;;300.75;71.07;;;;;;;;;;5038287;28;20031;-58
2023/10/04 12:17:34;;;;;;;367.88;73.28;;;;;;;;;;5036737;28;20247;-56
2023/10/04 12:19:59;;;;;;;258.73;71.15;;;;;;;;;;5036674;28;20036;-57
2023/10/04 12:22:25;;;;;;;315.15;72.30;;;;;;;;;;5038130;28;20029;-55
2023/10/04 12:24:50;;;;;;;503.43;80.33;;;;;;;;;;5037524;28;20127;-55
2023/10/04 12:27:21;;;;;;;317.38;72.78;;;;;;;;;;5035760;28;20295;-57
2023/10/04 12:29:47;;;;;;;387.73;77.60;;;;;;;;;;5038613;28;20820;-56
2023/10/04 12:32:14;;;;;;;318.77;73.78;;;;;;;;;;5038214;28;20535;-55
2023/10/04 12:34:40;;;;;;;316.13;75.03;;;;;;;;;;5037874;28;20028;-53
2023/10/04 12:37:06;;;;;;;308.67;77.10;;;;;;;;;;5038148;28;20045;-55
2023/10/04 12:39:31;;;;;;;334.15;75.05;;;;;;;;;;5038424;28;20056;-56
2023/10/04 12:41:59;;;;;;;281.67;72.80;;;;;;;;;;5038829;28;20037;-56
2023/10/04 12:44:24;;;;;;;292.42;73.95;;;;;;;;;;5039103;28;20115;-55
2023/10/04 12:46:50;;;;;;;396.20;77.60;;;;;;;;;;5037589;28;20167;-56
2023/10/04 12:49:15;;;;;;;264.48;72.93;;;;;;;;;;5040776;28;20406;-56
2023/10/04 12:51:45;;;;;;;352.02;77.40;;;;;;;;;;5038485;28;20574;-57
2023/10/04 12:54:11;;;;;;;361.60;86.40;;;;;;;;;;5038159;28;20021;-56
2023/10/04 12:56:37;;;;;;;303.25;75.13;;;;;;;;;;5039340;28;21369;-55
2023/10/04 12:59:03;;;;;;;244.88;71.50;;;;;;;;;;5038715;28;20546;-54
2023/10/04 13:01:29;;;;;;;316.83;74.13;;;;;;;;;;5039689;28;20049;-56
2023/10/04 13:03:54;;;;;;;375.98;78.18;;;;;;;;;;5039079;28;20039;-56
2023/10/04 13:06:19;;;;;;;285.70;74.63;;;;;;;;;;5037631;28;20117;-56
2023/10/04 13:08:45;;;;;;;441.80;89.25;;;;;;;;;;5036184;28;20025;-56
2023/10/04 13:11:11;;;;;;;320.13;81.10;;;;;;;;;;5040098;28;20029;-57
2023/10/04 13:13:40;;;;;;;302.23;76.22;;;;;;;;;;5039223;28;20021;-57
2023/10/04 13:16:06;;;;;;;358.70;86.82;;;;;;;;;;5035512;28;20033;-56
2023/10/04 13:18:32;;;;;;;332.50;76.53;;;;;;;;;;5037610;28;20497;-55
2023/10/04 13:20:58;;;;;;;365.35;77.18;;;;;;;;;;5036151;28;20182;-56
2023/10/04 13:23:26;;;;;;;398.23;93.82;;;;;;;;;;5037772;28;20515;-55
2023/10/04 13:25:51;;;;;;;406.10;83.10;;;;;;;;;;5035129;28;20525;-56
2023/10/04 13:28:17;;;;;;;297.45;77.32;;;;;;;;;;5038838;28;20017;-56
2023/10/04 13:30:44;;;;;;;376.58;79.90;;;;;;;;;;5037139;28;20450;-55
2023/10/04 13:33:10;;;;;;;333.77;76.15;;;;;;;;;;5037450;28;20017;-56
2023/10/04 13:35:35;;;;;;;292.80;75.20;;;;;;;;;;5038355;28;20040;-56
2023/10/04 13:38:00;;;;;;;382.45;78.25;;;;;;;;;;5035806;28;20037;-55
2023/10/04 13:40:26;;;;;;;315.15;76.70;;;;;;;;;;5038634;28;20041;-55
2023/10/04 13:42:51;;;;;;;432.55;82.53;;;;;;;;;;5037143;28;20025;-55
2023/10/04 13:45:18;;;;;;;373.20;78.88;;;;;;;;;;5038672;28;20032;-56
2023/10/04 13:47:43;;;;;;;309.00;76.55;;;;;;;;;;5037261;28;20562;-55
2023/10/04 13:50:09;;;;;;;269.15;76.07;;;;;;;;;;5037789;28;20056;-56
2023/10/04 13:52:34;;;;;;;342.00;77.68;;;;;;;;;;5037393;28;20075;-54
2023/10/04 13:54:59;;;;;;;335.10;78.07;;;;;;;;;;5036148;28;20124;-55
2023/10/04 13:57:25;;;;;;;350.83;79.00;;;;;;;;;;5035692;28;20040;-55
2023/10/04 13:59:50;;;;;;;430.90;82.47;;;;;;;;;;5037171;28;20285;-54
2023/10/04 14:02:18;;;;;;;335.63;78.43;;;;;;;;;;5036902;28;20288;-55